createdAt,value
2023-02-28T00:01:26.301Z,3.59
2023-02-28T00:03:54.101Z,3.25
2023-02-28T00:06:21.903Z,3.70
2023-02-28T00:08:49.694Z,3.81
2023-02-28T00:11:19.121Z,3.92
2023-02-28T00:13:48.282Z,3.54
2023-02-28T00:16:17.650Z,3.39
2023-02-28T00:18:45.374Z,3.27
2023-02-28T00:21:13.070Z,3.19
2023-02-28T00:23:40.751Z,3.15
2023-02-28T00:26:08.420Z,3.11
2023-02-28T00:28:37.647Z,3.10
2023-02-28T00:31:05.667Z,3.06
2023-02-28T00:33:33.612Z,3.03
2023-02-28T00:36:06.751Z,3.04
2023-02-28T00:38:34.606Z,2.98
2023-02-28T00:41:05.526Z,2.97
2023-02-28T00:43:34.672Z,3.00
2023-02-28T00:46:04.365Z,2.98
2023-02-28T00:48:32.462Z,2.99
2023-02-28T00:51:00.352Z,2.98
2023-02-28T00:53:28.041Z,2.98
2023-02-28T00:55:55.786Z,2.97
2023-02-28T00:58:23.472Z,2.98
2023-02-28T01:00:51.185Z,2.98
2023-02-28T01:03:21.515Z,2.98
2023-02-28T01:05:49.250Z,2.98
2023-02-28T01:08:17.047Z,2.97
2023-02-28T01:10:45.224Z,2.97
2023-02-28T01:13:14.585Z,2.97
2023-02-28T01:15:44.354Z,2.97
2023-02-28T01:18:12.048Z,2.96
2023-02-28T01:20:41.322Z,2.97
2023-02-28T01:23:08.994Z,2.97
2023-02-28T01:25:36.868Z,2.97
2023-02-28T01:28:05.050Z,2.97
2023-02-28T01:30:32.799Z,2.96
2023-02-28T01:33:00.594Z,2.97
2023-02-28T01:35:28.369Z,2.98
2023-02-28T01:38:04.660Z,2.99
2023-02-28T01:40:37.393Z,2.96
2023-02-28T01:43:05.432Z,2.97
2023-02-28T01:45:33.885Z,2.98
2023-02-28T01:48:04.738Z,2.98
2023-02-28T01:50:36.099Z,2.98
2023-02-28T01:53:08.262Z,2.99
2023-02-28T01:55:37.046Z,2.97
2023-02-28T01:58:06.902Z,2.97
2023-02-28T02:00:34.886Z,2.98
2023-02-28T02:03:07.697Z,2.97
2023-02-28T02:05:35.565Z,2.96
2023-02-28T02:08:06.612Z,2.94
2023-02-28T02:10:37.866Z,2.98
2023-02-28T02:13:21.357Z,2.98
2023-02-28T02:15:55.215Z,2.96
2023-02-28T02:18:28.654Z,2.96
2023-02-28T02:21:31.736Z,2.96
2023-02-28T02:24:41.715Z,2.95
2023-02-28T02:27:42.151Z,2.94
2023-02-28T02:30:46.806Z,2.92
2023-02-28T02:33:38.318Z,2.90
2023-02-28T02:36:09.423Z,2.87
2023-02-28T02:38:40.574Z,2.94
2023-02-28T02:41:14.809Z,2.94
2023-02-28T02:43:46.889Z,2.95
2023-02-28T02:46:17.115Z,2.92
2023-02-28T02:48:45.909Z,2.93
2023-02-28T02:51:17.039Z,2.95
2023-02-28T02:53:50.301Z,2.95
2023-02-28T02:56:21.046Z,2.94
2023-02-28T02:58:51.218Z,2.95
2023-02-28T03:01:29.405Z,2.92
2023-02-28T03:03:59.698Z,2.93
2023-02-28T03:06:29.088Z,2.93
2023-02-28T03:08:56.785Z,2.96
2023-02-28T03:11:25.124Z,2.95
2023-02-28T03:14:15.147Z,2.96
2023-02-28T03:17:02.478Z,2.96
2023-02-28T03:19:47.889Z,2.96
2023-02-28T03:22:29.971Z,2.90
2023-02-28T03:24:59.568Z,2.92
2023-02-28T03:27:30.064Z,2.97
2023-02-28T03:30:02.666Z,2.95
2023-02-28T03:32:33.375Z,2.96
2023-02-28T03:35:06.962Z,2.96
2023-02-28T03:37:37.941Z,2.97
2023-02-28T03:40:10.120Z,2.97
2023-02-28T03:42:39.274Z,2.96
2023-02-28T03:45:13.062Z,2.93
2023-02-28T03:47:44.647Z,2.95
2023-02-28T03:50:15.514Z,2.90
2023-02-28T03:52:47.157Z,2.94
2023-02-28T03:55:16.290Z,2.92
2023-02-28T03:57:51.731Z,2.93
2023-02-28T04:00:21.552Z,2.89
2023-02-28T04:02:53.543Z,2.89
2023-02-28T04:05:21.459Z,2.88
2023-02-28T04:07:53.752Z,2.89
2023-02-28T04:10:21.586Z,2.85
2023-02-28T04:12:49.284Z,2.88
2023-02-28T04:15:17.042Z,2.87
2023-02-28T04:17:44.766Z,2.89
2023-02-28T04:20:13.328Z,2.90
2023-02-28T04:22:40.991Z,2.87
2023-02-28T04:25:10.654Z,2.88
2023-02-28T04:27:38.356Z,2.87
2023-02-28T04:30:07.287Z,2.86
2023-02-28T04:32:35.121Z,2.86
2023-02-28T04:35:03.575Z,2.85
2023-02-28T04:37:31.218Z,2.84
2023-02-28T04:39:58.910Z,2.81
2023-02-28T04:42:28.000Z,2.82
2023-02-28T04:44:55.844Z,2.81
2023-02-28T04:47:23.651Z,2.82
2023-02-28T04:49:51.399Z,2.82
2023-02-28T04:52:19.223Z,2.81
2023-02-28T04:54:46.694Z,2.65
2023-02-28T04:57:14.467Z,2.74
2023-02-28T04:59:43.660Z,2.79
2023-02-28T05:02:11.455Z,2.78
2023-02-28T05:04:39.221Z,2.78
2023-02-28T05:07:06.967Z,2.77
2023-02-28T05:09:35.676Z,2.77
2023-02-28T05:12:04.236Z,2.76
2023-02-28T05:14:31.941Z,2.76
2023-02-28T05:17:01.097Z,2.76
2023-02-28T05:19:28.807Z,2.74
2023-02-28T05:21:56.981Z,2.75
2023-02-28T05:24:24.801Z,2.73
2023-02-28T05:26:53.826Z,2.74
2023-02-28T05:29:21.683Z,2.74
2023-02-28T05:31:49.856Z,2.71
2023-02-28T05:34:19.052Z,2.75
2023-02-28T05:36:46.846Z,2.71
2023-02-28T05:39:14.612Z,2.74
2023-02-28T05:41:43.496Z,2.74
2023-02-28T05:44:11.713Z,2.74
2023-02-28T05:46:39.546Z,2.74
2023-02-28T05:49:07.570Z,2.74
2023-02-28T05:51:37.379Z,2.76
2023-02-28T05:54:05.629Z,2.74
2023-02-28T05:56:35.537Z,2.74
2023-02-28T05:59:03.777Z,2.73
2023-02-28T06:01:36.115Z,2.74
2023-02-28T06:04:05.140Z,2.73
2023-02-28T06:06:36.930Z,2.72
2023-02-28T06:09:06.787Z,2.72
2023-02-28T06:11:35.034Z,2.71
2023-02-28T06:14:03.628Z,2.71
2023-02-28T06:16:32.955Z,2.71
2023-02-28T06:19:01.898Z,2.70
2023-02-28T06:21:33.098Z,2.69
2023-02-28T06:24:01.168Z,2.67
2023-02-28T06:26:30.411Z,2.68
2023-02-28T06:28:58.304Z,2.68
2023-02-28T06:31:26.921Z,2.66
2023-02-28T06:33:54.788Z,2.68
2023-02-28T06:36:22.577Z,2.69
2023-02-28T06:38:55.516Z,2.69
2023-02-28T06:41:24.279Z,2.67
2023-02-28T06:43:53.733Z,2.69
2023-02-28T06:46:21.694Z,2.69
2023-02-28T06:48:49.430Z,2.69
2023-02-28T06:51:21.262Z,2.70
2023-02-28T06:53:49.136Z,2.71
2023-02-28T06:56:18.180Z,2.73
2023-02-28T06:58:49.279Z,2.75
2023-02-28T07:01:18.886Z,2.75
2023-02-28T07:03:46.933Z,2.76
2023-02-28T07:06:14.690Z,2.76
2023-02-28T07:08:42.544Z,2.78
2023-02-28T07:11:10.186Z,2.82
2023-02-28T07:13:38.206Z,2.84
2023-02-28T07:16:08.751Z,2.88
2023-02-28T07:18:38.257Z,2.89
2023-02-28T07:21:07.148Z,2.91
2023-02-28T07:23:35.181Z,2.94
2023-02-28T07:26:03.193Z,2.98
2023-02-28T07:28:30.908Z,3.03
2023-02-28T07:30:58.550Z,3.07
2023-02-28T07:33:26.369Z,3.12
2023-02-28T07:36:02.472Z,3.17
2023-02-28T07:38:30.117Z,3.18
2023-02-28T07:40:57.817Z,3.22
2023-02-28T07:43:25.547Z,3.25
2023-02-28T07:45:53.269Z,3.26
2023-02-28T07:48:20.952Z,3.29
2023-02-28T07:50:57.518Z,3.35
2023-02-28T07:53:25.384Z,3.35
2023-02-28T07:55:56.409Z,3.38
2023-02-28T07:58:25.372Z,3.41
2023-02-28T08:00:53.241Z,3.45
2023-02-28T08:03:21.917Z,3.47
2023-02-28T08:05:49.792Z,3.49
2023-02-28T08:08:19.199Z,3.52
2023-02-28T08:10:46.972Z,3.56
2023-02-28T08:13:14.661Z,3.57
2023-02-28T08:15:43.394Z,3.63
2023-02-28T08:18:11.091Z,3.65
2023-02-28T08:20:38.822Z,3.67
2023-02-28T08:23:06.475Z,3.68
2023-02-28T08:25:35.551Z,3.75
2023-02-28T08:28:03.451Z,3.81
2023-02-28T08:30:31.159Z,3.85
2023-02-28T08:32:58.938Z,3.89
2023-02-28T08:35:26.882Z,3.92
2023-02-28T08:37:54.573Z,4.00
2023-02-28T08:40:22.411Z,4.04
2023-02-28T08:42:51.845Z,4.09
2023-02-28T08:45:19.513Z,4.13
2023-02-28T08:47:47.918Z,4.13
2023-02-28T08:50:15.946Z,4.18
2023-02-28T08:52:44.470Z,4.21
2023-02-28T08:55:12.308Z,4.21
2023-02-28T08:57:40.161Z,4.16
2023-02-28T09:00:11.244Z,4.10
2023-02-28T09:02:38.930Z,4.07
2023-02-28T09:05:07.501Z,4.06
2023-02-28T09:07:35.211Z,4.04
2023-02-28T09:10:02.863Z,4.06
2023-02-28T09:12:35.341Z,4.11
2023-02-28T09:15:03.196Z,4.15
2023-02-28T09:17:32.194Z,4.22
2023-02-28T09:20:00.171Z,4.29
2023-02-28T09:22:27.886Z,4.33
2023-02-28T09:24:55.612Z,4.42
2023-02-28T09:27:23.335Z,4.46
2023-02-28T09:29:51.345Z,4.54
2023-02-28T09:32:19.569Z,4.61
2023-02-28T09:34:48.992Z,4.67
2023-02-28T09:37:16.698Z,4.67
2023-02-28T09:39:44.444Z,4.72
2023-02-28T09:42:20.523Z,4.77
2023-02-28T09:44:49.508Z,4.78
2023-02-28T09:47:23.611Z,4.81
2023-02-28T09:49:52.785Z,4.87
2023-02-28T09:52:21.877Z,4.91
2023-02-28T09:54:49.673Z,5.00
2023-02-28T09:57:21.485Z,5.10
2023-02-28T10:00:08.511Z,5.17
2023-02-28T10:03:01.267Z,5.15
2023-02-28T10:05:33.400Z,5.18
2023-02-28T10:08:06.756Z,5.24
2023-02-28T10:10:39.547Z,5.29
2023-02-28T10:13:14.021Z,5.37
2023-02-28T10:15:42.596Z,5.46
2023-02-28T10:18:13.870Z,5.53
2023-02-28T10:20:44.603Z,5.57
2023-02-28T10:23:16.401Z,5.69
2023-02-28T10:25:49.050Z,5.72
2023-02-28T10:28:18.779Z,5.73
2023-02-28T10:30:48.872Z,5.74
2023-02-28T10:33:26.050Z,5.77
2023-02-28T10:35:55.258Z,5.79
2023-02-28T10:38:25.998Z,5.89
2023-02-28T10:40:54.072Z,5.99
2023-02-28T10:43:24.027Z,6.05
2023-02-28T10:45:58.263Z,6.11
2023-02-28T10:48:32.885Z,6.15
2023-02-28T10:51:02.896Z,6.16
2023-02-28T10:53:52.470Z,6.16
2023-02-28T10:56:25.900Z,6.19
2023-02-28T10:58:56.971Z,6.24
2023-02-28T11:01:27.333Z,6.31
2023-02-28T11:03:55.366Z,6.41
2023-02-28T11:06:28.657Z,6.49
2023-02-28T11:08:57.849Z,6.59
2023-02-28T11:11:27.945Z,6.69
2023-02-28T11:13:58.328Z,7.35
2023-02-28T11:16:35.048Z,7.15
2023-02-28T11:19:02.932Z,7.11
2023-02-28T11:21:34.709Z,7.08
2023-02-28T11:24:05.932Z,7.09
2023-02-28T11:26:38.707Z,7.13
2023-02-28T11:29:14.568Z,7.18
2023-02-28T11:31:42.447Z,7.21
2023-02-28T11:34:26.252Z,7.23
2023-02-28T11:36:59.160Z,7.24
2023-02-28T11:39:28.411Z,7.30
2023-02-28T11:42:09.012Z,7.39
2023-02-28T11:44:52.440Z,7.41
2023-02-28T11:47:26.441Z,7.43
2023-02-28T11:50:03.674Z,7.46
2023-02-28T11:52:39.528Z,7.49
2023-02-28T11:55:16.997Z,7.50
2023-02-28T11:58:07.783Z,7.54
2023-02-28T12:00:49.678Z,7.58
2023-02-28T12:03:28.476Z,7.61
2023-02-28T12:06:03.145Z,7.67
2023-02-28T12:08:49.284Z,7.70
2023-02-28T12:11:30.319Z,7.67
2023-02-28T12:14:11.921Z,7.57
2023-02-28T12:16:52.841Z,7.61
2023-02-28T12:19:22.990Z,7.65
2023-02-28T12:22:11.951Z,7.75
2023-02-28T12:25:08.443Z,7.79
2023-02-28T12:27:39.517Z,7.89
2023-02-28T12:30:12.048Z,7.97
2023-02-28T12:32:41.646Z,7.95
2023-02-28T12:35:14.761Z,8.00
2023-02-28T12:37:47.279Z,7.98
2023-02-28T12:40:19.583Z,7.90
2023-02-28T12:42:49.697Z,7.87
2023-02-28T12:45:21.307Z,7.89
2023-02-28T12:47:53.416Z,7.84
2023-02-28T12:50:21.946Z,7.80
2023-02-28T12:52:56.716Z,7.79
2023-02-28T12:55:31.661Z,7.83
2023-02-28T12:58:06.496Z,7.84
2023-02-28T13:00:36.482Z,7.80
2023-02-28T13:03:19.480Z,7.87
2023-02-28T13:06:07.224Z,7.91
2023-02-28T13:09:05.497Z,7.83
2023-02-28T13:11:36.483Z,7.77
2023-02-28T13:14:06.167Z,7.69
2023-02-28T13:16:59.595Z,7.59
2023-02-28T13:19:29.280Z,7.53
2023-02-28T13:21:57.494Z,7.50
2023-02-28T13:24:45.826Z,7.47
2023-02-28T13:27:40.295Z,7.50
2023-02-28T13:30:45.515Z,7.55
2023-02-28T13:33:27.562Z,7.56
2023-02-28T13:36:27.286Z,7.66
2023-02-28T13:38:56.494Z,7.70
2023-02-28T13:41:46.017Z,7.79
2023-02-28T13:44:16.670Z,7.78
2023-02-28T13:47:26.040Z,7.76
2023-02-28T13:49:54.438Z,7.72
2023-02-28T13:52:24.388Z,7.73
2023-02-28T13:55:28.620Z,7.81
2023-02-28T13:58:06.970Z,7.81
2023-02-28T14:00:48.016Z,7.87
2023-02-28T14:03:37.407Z,7.86
2023-02-28T14:06:23.477Z,7.87
2023-02-28T14:08:56.521Z,7.87
2023-02-28T14:11:30.413Z,7.85
2023-02-28T14:13:58.182Z,7.83
2023-02-28T14:16:30.920Z,7.85
2023-02-28T14:19:02.387Z,7.88
2023-02-28T14:21:31.889Z,7.95
2023-02-28T14:24:21.323Z,8.01
2023-02-28T14:27:23.541Z,8.03
2023-02-28T14:30:11.468Z,8.06
2023-02-28T14:33:27.563Z,8.09
2023-02-28T14:36:05.437Z,8.07
2023-02-28T14:38:35.418Z,8.03
2023-02-28T14:41:07.154Z,8.01
2023-02-28T14:43:35.053Z,8.05
2023-02-28T14:46:04.600Z,8.08
2023-02-28T14:48:34.553Z,8.04
2023-02-28T14:51:03.162Z,8.12
2023-02-28T14:53:32.726Z,8.16
2023-02-28T14:56:01.256Z,8.22
2023-02-28T14:58:53.383Z,8.29
2023-02-28T15:01:36.230Z,8.35
2023-02-28T15:04:07.213Z,8.30
2023-02-28T15:06:35.495Z,8.25
2023-02-28T15:09:11.652Z,8.10
2023-02-28T15:11:40.697Z,8.01
2023-02-28T15:14:08.699Z,7.96
2023-02-28T15:16:39.799Z,7.89
2023-02-28T15:19:13.877Z,7.79
2023-02-28T15:21:45.446Z,7.71
2023-02-28T15:24:15.971Z,7.66
2023-02-28T15:26:47.725Z,7.59
2023-02-28T15:29:17.302Z,7.55
2023-02-28T15:31:56.940Z,7.52
2023-02-28T15:34:43.168Z,7.45
2023-02-28T15:37:26.262Z,7.19
2023-02-28T15:39:54.424Z,7.19
2023-02-28T15:42:23.939Z,7.13
2023-02-28T15:44:52.202Z,7.05
2023-02-28T15:47:21.684Z,6.97
2023-02-28T15:49:52.706Z,6.89
2023-02-28T15:52:22.979Z,6.85
2023-02-28T15:54:50.780Z,6.81
2023-02-28T15:57:21.297Z,6.80
2023-02-28T15:59:54.076Z,6.77
2023-02-28T16:02:23.338Z,6.77
2023-02-28T16:05:00.235Z,6.78
2023-02-28T16:07:28.504Z,6.74
2023-02-28T16:09:56.368Z,6.73
2023-02-28T16:12:27.972Z,6.73
2023-02-28T16:14:56.923Z,6.68
2023-02-28T16:17:26.762Z,6.67
2023-02-28T16:19:54.757Z,6.63
2023-02-28T16:22:23.927Z,6.59
2023-02-28T16:24:51.704Z,6.52
2023-02-28T16:27:23.137Z,6.52
2023-02-28T16:29:50.895Z,6.47
2023-02-28T16:32:18.929Z,6.44
2023-02-28T16:34:46.711Z,6.41
2023-02-28T16:37:18.447Z,6.39
2023-02-28T16:39:48.692Z,6.35
2023-02-28T16:42:19.743Z,6.32
2023-02-28T16:44:48.136Z,6.29
2023-02-28T16:47:15.862Z,6.26
2023-02-28T16:49:44.183Z,6.21
2023-02-28T16:52:12.779Z,6.19
2023-02-28T16:54:40.636Z,6.16
2023-02-28T16:57:19.378Z,6.13
2023-02-28T16:59:47.062Z,6.07
2023-02-28T17:02:16.679Z,6.02
2023-02-28T17:04:44.438Z,6.03
2023-02-28T17:07:13.789Z,5.99
2023-02-28T17:09:44.011Z,5.97
2023-02-28T17:12:14.068Z,5.93
2023-02-28T17:14:41.749Z,5.91
2023-02-28T17:17:09.904Z,5.90
2023-02-28T17:19:39.264Z,5.86
2023-02-28T17:22:07.077Z,5.83
2023-02-28T17:24:34.719Z,5.81
2023-02-28T17:27:02.443Z,5.79
2023-02-28T17:29:31.512Z,5.77
2023-02-28T17:32:03.149Z,5.73
2023-02-28T17:34:36.555Z,5.68
2023-02-28T17:37:04.861Z,5.65
2023-02-28T17:39:32.578Z,5.61
2023-02-28T17:42:00.284Z,5.58
2023-02-28T17:45:12.207Z,5.54
2023-02-28T17:47:40.355Z,5.51
2023-02-28T17:50:08.889Z,5.46
2023-02-28T17:52:37.752Z,5.42
2023-02-28T17:55:06.053Z,5.37
2023-02-28T17:57:33.735Z,5.33
2023-02-28T18:00:06.189Z,5.29
2023-02-28T18:02:35.420Z,5.25
2023-02-28T18:05:05.414Z,5.21
2023-02-28T18:07:33.464Z,5.17
2023-02-28T18:10:01.201Z,5.11
2023-02-28T18:12:28.881Z,5.09
2023-02-28T18:14:56.606Z,5.05
2023-02-28T18:17:24.324Z,5.02
2023-02-28T18:19:53.536Z,4.99
2023-02-28T18:22:21.506Z,4.95
2023-02-28T18:24:49.294Z,4.91
2023-02-28T18:27:16.927Z,4.84
2023-02-28T18:29:44.573Z,4.78
2023-02-28T18:32:12.376Z,4.73
2023-02-28T18:34:40.244Z,4.68
2023-02-28T18:37:11.809Z,4.63
2023-02-28T18:39:39.668Z,4.58
2023-02-28T18:42:07.376Z,4.53
2023-02-28T18:44:35.342Z,4.47
2023-02-28T18:47:03.160Z,4.43
2023-02-28T18:49:33.981Z,4.39
2023-02-28T18:52:01.716Z,4.31
2023-02-28T18:54:30.809Z,4.29
2023-02-28T18:56:58.522Z,4.24
2023-02-28T18:59:27.296Z,4.21
2023-02-28T19:01:54.934Z,4.16
2023-02-28T19:04:22.668Z,4.12
2023-02-28T19:06:50.934Z,4.09
2023-02-28T19:09:18.655Z,4.04
2023-02-28T19:11:47.787Z,4.01
2023-02-28T19:14:15.690Z,3.95
2023-02-28T19:16:43.382Z,3.90
2023-02-28T19:19:11.042Z,3.87
2023-02-28T19:21:38.785Z,3.83
2023-02-28T19:24:07.049Z,3.81
2023-02-28T19:26:34.829Z,3.78
2023-02-28T19:29:04.954Z,3.75
2023-02-28T19:31:32.986Z,3.69
2023-02-28T19:34:01.792Z,3.66
2023-02-28T19:36:29.456Z,3.63
2023-02-28T19:38:57.201Z,3.59
2023-02-28T19:41:32.220Z,3.58
2023-02-28T19:44:00.037Z,3.53
2023-02-28T19:46:29.814Z,3.53
2023-02-28T19:48:57.511Z,3.50
2023-02-28T19:51:25.270Z,3.48
2023-02-28T19:53:53.021Z,3.46
2023-02-28T19:56:20.869Z,3.44
2023-02-28T19:58:48.614Z,3.39
2023-02-28T20:01:18.478Z,3.35
2023-02-28T20:03:50.101Z,3.34
2023-02-28T20:06:18.282Z,3.29
2023-02-28T20:08:45.963Z,3.26
2023-02-28T20:11:16.090Z,3.24
2023-02-28T20:13:44.044Z,3.20
2023-02-28T20:16:13.515Z,3.14
2023-02-28T20:18:44.075Z,3.13
2023-02-28T20:21:14.146Z,3.07
2023-02-28T20:23:43.119Z,3.04
2023-02-28T20:26:11.036Z,2.99
2023-02-28T20:28:39.070Z,2.97
2023-02-28T20:31:12.137Z,2.96
2023-02-28T20:33:39.823Z,2.87
2023-02-28T20:36:08.693Z,2.85
2023-02-28T20:38:38.008Z,2.85
2023-02-28T20:41:07.027Z,2.81
2023-02-28T20:43:35.039Z,2.77
2023-02-28T20:46:03.099Z,2.72
2023-02-28T20:48:32.505Z,2.70
2023-02-28T20:51:00.752Z,2.69
2023-02-28T20:53:29.320Z,2.62
2023-02-28T20:55:58.710Z,2.45
2023-02-28T20:58:27.580Z,2.34
2023-02-28T21:01:00.185Z,2.26
2023-02-28T21:03:27.688Z,2.20
2023-02-28T21:06:00.329Z,2.16
2023-02-28T21:08:27.894Z,2.12
2023-02-28T21:10:55.501Z,2.07
2023-02-28T21:13:24.419Z,2.05
2023-02-28T21:15:52.414Z,2.19
2023-02-28T21:18:20.283Z,2.21
2023-02-28T21:20:48.001Z,2.27
2023-02-28T21:23:15.636Z,2.27
2023-02-28T21:25:43.292Z,2.26
2023-02-28T21:28:10.970Z,2.26
2023-02-28T21:30:40.174Z,2.25
2023-02-28T21:33:07.891Z,2.22
2023-02-28T21:35:35.673Z,2.21
2023-02-28T21:38:03.355Z,2.20
2023-02-28T21:40:31.020Z,2.20
2023-02-28T21:42:58.739Z,2.17
2023-02-28T21:45:27.032Z,2.11
2023-02-28T21:47:56.106Z,2.13
2023-02-28T21:50:23.920Z,2.09
2023-02-28T21:52:51.620Z,2.08
2023-02-28T21:55:19.368Z,2.07
2023-02-28T21:57:47.132Z,2.04
2023-02-28T22:00:16.943Z,2.06
2023-02-28T22:02:44.617Z,2.03
2023-02-28T22:05:13.728Z,2.03
2023-02-28T22:07:42.330Z,1.98
2023-02-28T22:10:11.492Z,1.96
2023-02-28T22:12:39.204Z,1.91
2023-02-28T22:15:08.179Z,1.89
2023-02-28T22:17:35.828Z,1.87
2023-02-28T22:20:04.055Z,1.85
2023-02-28T22:22:33.103Z,1.82
2023-02-28T22:25:00.758Z,1.77
2023-02-28T22:27:28.442Z,1.77
2023-02-28T22:29:56.731Z,1.75
2023-02-28T22:32:24.542Z,1.70
2023-02-28T22:34:52.256Z,1.73
2023-02-28T22:37:19.912Z,1.68
2023-02-28T22:39:49.181Z,1.69
2023-02-28T22:42:16.845Z,1.68
2023-02-28T22:44:46.768Z,1.65
2023-02-28T22:47:14.479Z,1.63
2023-02-28T22:49:42.226Z,1.61
2023-02-28T22:52:09.926Z,1.60
2023-02-28T22:54:37.632Z,1.58
2023-02-28T22:57:06.664Z,1.55
2023-02-28T22:59:34.436Z,1.54
2023-02-28T23:02:02.145Z,1.52
2023-02-28T23:04:30.058Z,1.50
2023-02-28T23:06:57.796Z,1.45
2023-02-28T23:09:25.424Z,1.45
2023-02-28T23:11:53.325Z,1.43
2023-02-28T23:14:22.595Z,1.41
2023-02-28T23:16:52.219Z,1.34
2023-02-28T23:19:22.005Z,1.38
2023-02-28T23:21:49.890Z,1.35
2023-02-28T23:24:19.784Z,1.35
2023-02-28T23:26:49.961Z,1.34
2023-02-28T23:29:18.786Z,1.32
2023-02-28T23:31:48.686Z,1.32
2023-02-28T23:34:17.272Z,1.29
2023-02-28T23:36:46.003Z,1.27
2023-02-28T23:39:14.328Z,1.26
2023-02-28T23:41:42.040Z,1.24
2023-02-28T23:44:16.802Z,1.23
2023-02-28T23:46:45.072Z,1.22
2023-02-28T23:49:14.468Z,1.21
2023-02-28T23:51:42.240Z,1.18
2023-02-28T23:54:09.931Z,1.16
2023-02-28T23:56:37.622Z,1.09
2023-02-28T23:59:06.323Z,1.79
